createdAt,value
2023-02-25T00:00:06.404Z,94535.25
2023-02-25T00:05:14.304Z,94554.16
2023-02-25T00:10:16.228Z,94554.38
2023-02-25T00:15:17.746Z,94542.03
2023-02-25T00:20:19.336Z,94574.03
2023-02-25T00:25:20.835Z,94579.06
2023-02-25T00:30:22.334Z,94582.81
2023-02-25T00:35:23.856Z,94574.81
2023-02-25T00:40:25.397Z,94583.59
2023-02-25T00:45:26.869Z,94579.84
2023-02-25T00:50:28.366Z,94574.28
2023-02-25T00:55:29.819Z,94593.41
2023-02-25T01:00:35.946Z,94590.19
2023-02-25T01:05:42.280Z,94585.22
2023-02-25T01:10:44.017Z,94576.97
2023-02-25T01:15:45.597Z,94578.75
2023-02-25T01:20:47.190Z,94593.38
2023-02-25T01:25:48.708Z,94600.06
2023-02-25T01:30:50.358Z,94619.25
2023-02-25T01:35:54.010Z,94626.31
2023-02-25T01:40:59.679Z,94622.63
2023-02-25T01:46:01.505Z,94623.53
2023-02-25T01:51:07.802Z,94624.22
2023-02-25T01:56:12.008Z,94630.13
2023-02-25T02:01:16.827Z,94627.50
2023-02-25T02:06:26.300Z,94622.72
2023-02-25T02:11:27.768Z,94624.56
2023-02-25T02:16:45.420Z,94620.50
2023-02-25T02:22:00.172Z,94618.44
2023-02-25T02:27:10.101Z,94622.44
2023-02-25T02:32:23.889Z,94624.97
2023-02-25T02:38:12.745Z,94614.19
2023-02-25T02:43:52.644Z,94623.81
2023-02-25T02:49:12.369Z,94643.91
2023-02-25T02:54:15.358Z,94650.09
2023-02-25T02:59:37.897Z,94660.88
2023-02-25T03:04:42.998Z,94652.50
2023-02-25T03:09:50.200Z,94669.22
2023-02-25T03:14:52.012Z,94673.78
2023-02-25T03:20:15.476Z,94666.53
2023-02-25T03:25:22.227Z,94678.88
2023-02-25T03:31:07.267Z,94682.78
2023-02-25T03:36:15.788Z,94682.78
2023-02-25T03:41:19.155Z,94689.81
2023-02-25T03:46:22.605Z,94695.09
2023-02-25T03:51:30.981Z,94696.19
2023-02-25T03:56:42.536Z,94702.53
2023-02-25T04:01:48.400Z,94705.22
2023-02-25T04:06:49.942Z,94702.47
2023-02-25T04:11:51.711Z,94695.31
2023-02-25T04:16:53.253Z,94702.94
2023-02-25T04:21:54.855Z,94707.22
2023-02-25T04:26:56.366Z,94709.56
2023-02-25T04:31:58.078Z,94689.16
2023-02-25T04:36:59.673Z,94708.31
2023-02-25T04:42:01.339Z,94716.06
2023-02-25T04:47:03.269Z,94712.06
2023-02-25T04:52:04.741Z,94714.25
2023-02-25T04:57:07.693Z,94712.72
2023-02-25T05:02:09.652Z,94712.31
2023-02-25T05:07:11.234Z,94717.56
2023-02-25T05:12:12.697Z,94709.75
2023-02-25T05:17:14.161Z,94719.34
2023-02-25T05:22:15.689Z,94718.56
2023-02-25T05:27:17.380Z,94715.34
2023-02-25T05:32:19.019Z,94714.25
2023-02-25T05:37:20.545Z,94711.63
2023-02-25T05:42:22.051Z,94720.75
2023-02-25T05:47:23.566Z,94716.69
2023-02-25T05:52:25.346Z,94707.63
2023-02-25T05:57:26.845Z,94716.72
2023-02-25T06:02:28.526Z,94728.03
2023-02-25T06:07:31.114Z,94715.91
2023-02-25T06:12:33.836Z,94722.69
2023-02-25T06:17:35.380Z,94720.19
2023-02-25T06:22:36.870Z,94715.38
2023-02-25T06:27:38.309Z,94731.25
2023-02-25T06:32:39.898Z,94729.16
2023-02-25T06:37:41.462Z,94739.81
2023-02-25T06:42:42.959Z,94734.38
2023-02-25T06:47:44.433Z,94734.91
2023-02-25T06:52:45.982Z,94755.94
2023-02-25T06:57:47.437Z,94752.22
2023-02-25T07:02:48.960Z,94751.38
2023-02-25T07:07:50.401Z,94749.31
2023-02-25T07:12:52.524Z,94758.16
2023-02-25T07:17:54.148Z,94742.97
2023-02-25T07:22:55.784Z,94735.38
2023-02-25T07:27:57.293Z,94731.22
2023-02-25T07:32:58.832Z,94745.59
2023-02-25T07:38:00.819Z,94763.13
2023-02-25T07:43:02.245Z,94768.06
2023-02-25T07:48:03.880Z,94778.72
2023-02-25T07:53:05.394Z,94763.41
2023-02-25T07:58:07.556Z,94760.47
2023-02-25T08:03:09.131Z,94758.41
2023-02-25T08:08:10.580Z,94749.84
2023-02-25T08:13:12.107Z,94746.25
2023-02-25T08:18:13.699Z,94747.34
2023-02-25T08:23:15.232Z,94736.84
2023-02-25T08:28:16.724Z,94743.06
2023-02-25T08:33:18.382Z,94734.22
2023-02-25T08:38:19.839Z,94736.16
2023-02-25T08:43:21.274Z,94728.31
2023-02-25T08:48:22.918Z,94725.94
2023-02-25T08:53:24.392Z,94732.72
2023-02-25T08:58:25.816Z,94729.09
2023-02-25T09:03:27.448Z,94729.94
2023-02-25T09:08:28.967Z,94735.63
2023-02-25T09:13:30.462Z,94737.94
2023-02-25T09:18:31.928Z,94732.88
2023-02-25T09:23:33.362Z,94729.97
2023-02-25T09:28:35.277Z,94733.94
2023-02-25T09:33:37.730Z,94738.09
2023-02-25T09:38:41.074Z,94727.47
2023-02-25T09:43:42.985Z,94721.09
2023-02-25T09:49:07.952Z,94718.06
2023-02-25T09:54:20.677Z,94721.09
2023-02-25T09:59:22.271Z,94716.16
2023-02-25T10:04:31.010Z,94713.97
2023-02-25T10:09:52.674Z,94713.13
2023-02-25T10:15:12.878Z,94727.75
2023-02-25T10:20:17.239Z,94729.41
2023-02-25T10:25:25.754Z,94723.59
2023-02-25T10:30:49.047Z,94726.22
2023-02-25T10:36:01.890Z,94725.44
2023-02-25T10:41:05.393Z,94720.69
2023-02-25T10:46:19.578Z,94715.75
2023-02-25T10:51:21.244Z,94717.84
2023-02-25T10:56:25.692Z,94712.47
2023-02-25T11:01:36.474Z,94703.19
2023-02-25T11:06:40.029Z,94706.53
2023-02-25T11:11:52.495Z,94701.59
2023-02-25T11:17:08.238Z,94687.63
2023-02-25T11:22:28.209Z,94684.38
2023-02-25T11:27:41.383Z,94687.19
2023-02-25T11:32:45.493Z,94676.72
2023-02-25T11:37:47.581Z,94671.19
2023-02-25T11:43:16.211Z,94661.75
2023-02-25T11:48:48.854Z,94655.81
2023-02-25T11:54:21.352Z,94662.31
2023-02-25T11:59:43.520Z,94654.16
2023-02-25T12:04:53.835Z,94646.88
2023-02-25T12:10:04.459Z,94650.19
2023-02-25T12:15:42.691Z,94649.34
2023-02-25T12:21:22.112Z,94653.19
2023-02-25T12:27:09.461Z,94662.63
2023-02-25T12:32:10.915Z,94664.16
2023-02-25T12:37:29.782Z,94669.84
2023-02-25T12:42:57.034Z,94681.25
2023-02-25T12:48:33.470Z,94687.06
2023-02-25T12:53:40.891Z,94687.38
2023-02-25T12:58:55.142Z,94688.59
2023-02-25T13:04:24.347Z,94683.50
2023-02-25T13:09:50.824Z,94681.44
2023-02-25T13:15:12.308Z,94678.41
2023-02-25T13:20:29.672Z,94673.72
2023-02-25T13:25:56.766Z,94683.50
2023-02-25T13:31:08.116Z,94678.00
2023-02-25T13:36:31.352Z,94689.16
2023-02-25T13:42:10.571Z,94690.97
2023-02-25T13:47:17.782Z,94693.03
2023-02-25T13:52:25.323Z,94690.25
2023-02-25T13:57:26.721Z,94698.97
2023-02-25T14:02:40.295Z,94708.72
2023-02-25T14:07:54.745Z,94703.50
2023-02-25T14:13:17.540Z,94703.38
2023-02-25T14:18:58.157Z,94709.69
2023-02-25T14:24:31.496Z,94700.31
2023-02-25T14:29:46.755Z,94721.97
2023-02-25T14:35:15.637Z,94725.44
2023-02-25T14:40:28.392Z,94717.56
2023-02-25T14:45:39.673Z,94718.28
2023-02-25T14:50:59.831Z,94707.91
2023-02-25T14:56:13.258Z,94709.56
2023-02-25T15:01:17.771Z,94716.91
2023-02-25T15:06:53.378Z,94690.22
2023-02-25T15:12:00.608Z,94683.38
2023-02-25T15:17:37.470Z,94695.50
2023-02-25T15:22:53.848Z,94706.28
2023-02-25T15:27:56.773Z,94705.72
2023-02-25T15:33:16.852Z,94701.84
2023-02-25T15:38:20.472Z,94698.53
2023-02-25T15:43:21.849Z,94716.19
2023-02-25T15:48:31.453Z,94712.59
2023-02-25T15:53:37.009Z,94721.88
2023-02-25T15:58:44.004Z,94720.91
2023-02-25T16:03:45.603Z,94732.03
2023-02-25T16:08:54.797Z,94730.19
2023-02-25T16:13:58.019Z,94737.53
2023-02-25T16:19:01.903Z,94746.78
2023-02-25T16:24:11.398Z,94751.50
2023-02-25T16:29:25.024Z,94739.38
2023-02-25T16:34:34.148Z,94765.78
2023-02-25T16:39:37.437Z,94755.91
2023-02-25T16:44:40.824Z,94767.34
2023-02-25T16:49:46.581Z,94769.81
2023-02-25T16:54:55.342Z,94769.81
2023-02-25T17:00:16.986Z,94773.53
2023-02-25T17:05:26.192Z,94776.59
2023-02-25T17:10:42.107Z,94785.00
2023-02-25T17:15:43.797Z,94792.25
2023-02-25T17:20:45.560Z,94798.09
2023-02-25T17:25:48.911Z,94789.22
2023-02-25T17:30:50.888Z,94809.03
2023-02-25T17:35:57.983Z,94803.34
2023-02-25T17:40:59.633Z,94815.75
2023-02-25T17:46:13.988Z,94824.25
2023-02-25T17:51:15.843Z,94815.63
2023-02-25T17:56:17.232Z,94830.69
2023-02-25T18:01:25.551Z,94818.88
2023-02-25T18:06:41.633Z,94833.47
2023-02-25T18:11:43.170Z,94825.63
2023-02-25T18:16:44.744Z,94829.75
2023-02-25T18:21:46.306Z,94829.03
2023-02-25T18:27:01.401Z,94827.88
2023-02-25T18:32:03.008Z,94822.88
2023-02-25T18:37:04.595Z,94826.94
2023-02-25T18:42:06.068Z,94823.13
2023-02-25T18:47:07.558Z,94823.28
2023-02-25T18:52:21.414Z,94824.19
2023-02-25T18:57:26.029Z,94817.84
2023-02-25T19:02:31.867Z,94817.97
2023-02-25T19:07:34.787Z,94822.88
2023-02-25T19:12:36.390Z,94823.84
2023-02-25T19:17:37.839Z,94812.63
2023-02-25T19:22:43.633Z,94811.41
2023-02-25T19:27:45.185Z,94804.09
2023-02-25T19:32:46.640Z,94809.03
2023-02-25T19:37:48.346Z,94819.59
2023-02-25T19:42:49.782Z,94809.03
2023-02-25T19:47:51.806Z,94811.31
2023-02-25T19:52:54.305Z,94815.63
2023-02-25T19:57:55.828Z,94814.22
2023-02-25T20:02:57.335Z,94815.03
2023-02-25T20:07:58.771Z,94814.66
2023-02-25T20:13:00.222Z,94821.69
2023-02-25T20:18:01.649Z,94815.34
2023-02-25T20:23:03.100Z,94809.53
2023-02-25T20:28:04.753Z,94816.88
2023-02-25T20:33:06.257Z,94822.50
2023-02-25T20:38:30.260Z,94824.91
2023-02-25T20:43:31.941Z,94827.81
2023-02-25T20:48:33.561Z,94835.66
2023-02-25T20:53:35.206Z,94835.44
2023-02-25T20:58:36.658Z,94847.38
2023-02-25T21:03:38.162Z,94853.88
2023-02-25T21:08:40.114Z,94860.81
2023-02-25T21:13:41.607Z,94849.91
2023-02-25T21:18:43.952Z,94848.59
2023-02-25T21:23:45.971Z,94851.22
2023-02-25T21:28:47.420Z,94867.00
2023-02-25T21:33:48.876Z,94857.41
2023-02-25T21:38:50.326Z,94862.47
2023-02-25T21:43:52.695Z,94864.75
2023-02-25T21:48:56.141Z,94867.69
2023-02-25T21:53:59.251Z,94875.53
2023-02-25T21:59:03.063Z,94866.41
2023-02-25T22:04:05.155Z,94861.66
2023-02-25T22:09:06.763Z,94862.94
2023-02-25T22:14:09.206Z,94868.25
2023-02-25T22:19:10.735Z,94870.53
2023-02-25T22:24:12.213Z,94872.88
2023-02-25T22:29:14.106Z,94879.19
2023-02-25T22:34:15.632Z,94875.41
2023-02-25T22:39:17.148Z,94878.38
2023-02-25T22:44:18.640Z,94870.88
2023-02-25T22:49:20.284Z,94876.94
2023-02-25T22:54:21.782Z,94888.22
2023-02-25T22:59:23.287Z,94884.78
2023-02-25T23:04:25.098Z,94897.03
2023-02-25T23:09:26.665Z,94899.88
2023-02-25T23:14:28.132Z,94918.38
2023-02-25T23:19:29.671Z,94925.75
2023-02-25T23:24:31.332Z,94922.44
2023-02-25T23:29:32.856Z,94927.63
2023-02-25T23:34:34.396Z,94938.53
2023-02-25T23:39:35.845Z,94943.72
2023-02-25T23:44:37.602Z,94934.28
2023-02-25T23:49:39.230Z,94941.75
2023-02-25T23:54:40.838Z,94955.97
2023-02-25T23:59:42.476Z,94958.91
